createdAt,value
2018-04-06T00:01:34.796Z,5.60
2018-04-06T00:04:02.208Z,5.10
2018-04-06T00:06:29.634Z,7.50
2018-04-06T00:08:57.156Z,8.77
2018-04-06T00:11:24.625Z,7.25
2018-04-06T00:13:52.053Z,4.62
2018-04-06T00:16:20.259Z,5.12
2018-04-06T00:18:48.595Z,7.18
2018-04-06T00:21:16.032Z,7.55
2018-04-06T00:23:43.443Z,7.60
2018-04-06T00:26:10.972Z,6.43
2018-04-06T00:28:38.749Z,4.12
2018-04-06T00:31:06.920Z,11.38
2018-04-06T00:33:35.095Z,5.20
2018-04-06T00:36:03.279Z,5.45
2018-04-06T00:38:31.464Z,6.72
2018-04-06T00:40:58.884Z,6.65
2018-04-06T00:43:26.295Z,4.22
2018-04-06T00:45:53.807Z,8.20
2018-04-06T00:48:21.282Z,9.10
2018-04-06T00:50:48.740Z,10.65
2018-04-06T00:53:28.092Z,8.85
2018-04-06T00:55:55.512Z,9.82
2018-04-06T00:58:22.932Z,9.98
2018-04-06T01:00:50.404Z,9.32
2018-04-06T01:03:17.815Z,8.18
2018-04-06T01:05:45.235Z,8.50
2018-04-06T01:08:12.715Z,6.87
2018-04-06T01:10:40.131Z,5.80
2018-04-06T01:13:07.548Z,6.87
2018-04-06T01:15:35.022Z,9.82
2018-04-06T01:18:02.429Z,4.70
2018-04-06T01:20:30.060Z,6.22
2018-04-06T01:22:57.459Z,5.80
2018-04-06T01:25:24.888Z,10.75
2018-04-06T01:27:52.301Z,8.30
2018-04-06T01:30:19.733Z,6.03
2018-04-06T01:32:47.136Z,12.45
2018-04-06T01:35:22.508Z,8.27
2018-04-06T01:37:50.036Z,6.32
2018-04-06T01:40:17.597Z,5.37
2018-04-06T01:42:45.008Z,9.60
2018-04-06T01:45:12.420Z,8.40
2018-04-06T01:47:40.611Z,6.03
2018-04-06T01:50:08.812Z,3.85
2018-04-06T01:52:36.233Z,5.53
2018-04-06T01:55:03.643Z,6.15
2018-04-06T01:57:31.120Z,6.60
2018-04-06T01:59:58.582Z,9.20
2018-04-06T02:02:26.064Z,3.47
2018-04-06T02:04:53.532Z,11.65
2018-04-06T02:07:21.000Z,6.30
2018-04-06T02:09:48.469Z,9.02
2018-04-06T02:12:16.660Z,4.93
2018-04-06T02:14:44.071Z,8.23
2018-04-06T02:17:11.493Z,7.03
2018-04-06T02:19:38.969Z,12.00
2018-04-06T02:22:06.436Z,21.95
2018-04-06T02:24:33.948Z,15.98
2018-04-06T02:27:01.376Z,12.30
2018-04-06T02:29:28.789Z,7.85
2018-04-06T02:31:56.308Z,6.20
2018-04-06T02:34:23.720Z,5.07
2018-04-06T02:36:51.256Z,8.63
2018-04-06T02:39:18.731Z,10.00
2018-04-06T02:41:46.152Z,5.47
2018-04-06T02:44:13.569Z,8.27
2018-04-06T02:46:41.068Z,7.15
2018-04-06T02:49:08.506Z,8.02
2018-04-06T02:51:35.919Z,5.82
2018-04-06T02:54:03.331Z,9.95
2018-04-06T02:56:30.809Z,6.12
2018-04-06T02:58:58.216Z,8.32
2018-04-06T03:01:25.645Z,6.87
2018-04-06T03:03:53.069Z,5.85
2018-04-06T03:06:20.589Z,5.32
2018-04-06T03:08:48.976Z,11.32
2018-04-06T03:11:16.444Z,9.00
2018-04-06T03:13:43.867Z,11.43
2018-04-06T03:16:11.387Z,3.12
2018-04-06T03:18:38.856Z,4.15
2018-04-06T03:21:06.280Z,6.87
2018-04-06T03:23:33.693Z,5.97
2018-04-06T03:26:01.111Z,6.47
2018-04-06T03:28:28.633Z,8.63
2018-04-06T03:30:56.052Z,8.00
2018-04-06T03:33:23.574Z,6.37
2018-04-06T03:35:51.045Z,11.73
2018-04-06T03:38:18.615Z,10.40
2018-04-06T03:40:46.799Z,7.05
2018-04-06T03:43:14.272Z,9.13
2018-04-06T03:45:41.748Z,12.40
2018-04-06T03:48:09.208Z,15.05
2018-04-06T03:50:36.624Z,12.20
2018-04-06T03:53:04.049Z,14.52
2018-04-06T03:55:31.471Z,15.48
2018-04-06T03:57:58.993Z,10.45
2018-04-06T04:00:26.466Z,10.70
2018-04-06T04:02:53.928Z,7.75
2018-04-06T04:05:21.407Z,8.75
2018-04-06T04:07:48.831Z,6.75
2018-04-06T04:10:16.243Z,9.23
2018-04-06T04:12:43.672Z,11.60
2018-04-06T04:15:11.852Z,9.90
2018-04-06T04:17:39.271Z,9.35
2018-04-06T04:20:06.687Z,10.30
2018-04-06T04:22:34.876Z,8.20
2018-04-06T04:25:03.056Z,9.52
2018-04-06T04:27:30.581Z,7.15
2018-04-06T04:29:57.991Z,11.15
2018-04-06T04:32:25.524Z,9.55
2018-04-06T04:34:52.948Z,12.10
2018-04-06T04:37:21.172Z,9.02
2018-04-06T04:39:48.592Z,12.10
2018-04-06T04:42:16.109Z,8.23
2018-04-06T04:44:43.532Z,13.07
2018-04-06T04:47:11.060Z,7.32
2018-04-06T04:49:38.520Z,7.68
2018-04-06T04:52:05.931Z,9.23
2018-04-06T04:54:33.356Z,11.25
2018-04-06T04:57:00.768Z,7.40
2018-04-06T04:59:28.301Z,10.70
2018-04-06T05:01:55.712Z,8.45
2018-04-06T05:04:23.901Z,9.60
2018-04-06T05:06:51.344Z,10.13
2018-04-06T05:09:18.791Z,13.40
2018-04-06T05:11:46.260Z,10.38
2018-04-06T05:14:13.684Z,9.98
2018-04-06T05:16:41.204Z,9.57
2018-04-06T05:19:08.623Z,9.80
2018-04-06T05:21:36.040Z,11.30
2018-04-06T05:24:03.470Z,12.75
2018-04-06T05:26:30.976Z,9.32
2018-04-06T05:28:58.394Z,16.37
2018-04-06T05:31:25.816Z,13.30
2018-04-06T05:33:53.232Z,9.85
2018-04-06T05:36:22.162Z,9.57
2018-04-06T05:38:50.383Z,9.07
2018-04-06T05:41:17.760Z,13.40
2018-04-06T05:43:45.175Z,8.50
2018-04-06T05:46:13.363Z,12.13
2018-04-06T05:48:42.546Z,8.50
2018-04-06T05:51:10.076Z,13.43
2018-04-06T05:53:37.493Z,11.63
2018-04-06T05:56:04.920Z,15.00
2018-04-06T05:58:32.392Z,10.90
2018-04-06T06:00:59.861Z,10.48
2018-04-06T06:03:27.275Z,13.85
2018-04-06T06:05:54.708Z,8.00
2018-04-06T06:08:22.128Z,9.95
2018-04-06T06:10:49.825Z,11.38
2018-04-06T06:13:17.212Z,11.73
2018-04-06T06:15:44.632Z,14.55
2018-04-06T06:18:12.056Z,10.82
2018-04-06T06:20:39.477Z,10.55
2018-04-06T06:23:06.998Z,9.63
2018-04-06T06:25:34.453Z,10.38
2018-04-06T06:28:01.920Z,11.00
2018-04-06T06:30:29.395Z,11.18
2018-04-06T06:32:56.820Z,14.82
2018-04-06T06:35:25.745Z,14.60
2018-04-06T06:37:53.952Z,13.52
2018-04-06T06:40:21.436Z,11.05
2018-04-06T06:42:48.864Z,13.65
2018-04-06T06:45:17.076Z,9.55
2018-04-06T06:47:44.552Z,15.32
2018-04-06T06:50:12.124Z,7.22
2018-04-06T06:52:39.533Z,10.48
2018-04-06T06:55:06.965Z,6.18
2018-04-06T06:57:34.392Z,4.95
2018-04-06T07:00:01.896Z,9.48
2018-04-06T07:02:29.316Z,8.88
2018-04-06T07:04:56.728Z,6.87
2018-04-06T07:07:24.207Z,10.43
2018-04-06T07:09:51.620Z,8.57
2018-04-06T07:12:19.045Z,12.23
2018-04-06T07:14:46.463Z,7.03
2018-04-06T07:17:13.981Z,7.65
2018-04-06T07:19:41.452Z,10.50
2018-04-06T07:22:08.885Z,16.50
2018-04-06T07:24:36.425Z,11.70
2018-04-06T07:27:03.868Z,9.38
2018-04-06T07:29:31.284Z,9.85
2018-04-06T07:34:21.664Z,10.98
2018-04-06T07:36:49.085Z,6.72
2018-04-06T07:39:16.611Z,15.02
2018-04-06T07:41:44.028Z,7.72
2018-04-06T07:44:11.442Z,9.38
2018-04-06T07:46:38.859Z,7.72
2018-04-06T07:49:06.281Z,8.85
2018-04-06T07:51:33.692Z,8.02
2018-04-06T07:54:01.116Z,10.32
2018-04-06T07:56:28.528Z,9.25
2018-04-06T07:58:56.064Z,12.30
2018-04-06T08:01:23.536Z,10.02
2018-04-06T08:03:50.956Z,9.23
2018-04-06T08:06:18.376Z,9.38
2018-04-06T08:08:45.832Z,6.85
2018-04-06T08:11:13.243Z,7.45
2018-04-06T08:13:40.696Z,9.32
2018-04-06T08:16:08.347Z,7.40
2018-04-06T08:18:35.821Z,9.30
2018-04-06T08:21:03.287Z,7.35
2018-04-06T08:23:30.756Z,6.80
2018-04-06T08:25:58.232Z,7.62
2018-04-06T08:28:25.701Z,7.72
2018-04-06T08:30:53.117Z,6.12
2018-04-06T08:33:22.044Z,7.35
2018-04-06T08:35:50.256Z,5.28
2018-04-06T08:38:17.725Z,7.62
2018-04-06T08:40:45.196Z,6.72
2018-04-06T08:43:12.672Z,6.85
2018-04-06T08:45:40.136Z,3.10
2018-04-06T08:48:07.620Z,5.22
2018-04-06T08:50:34.980Z,4.05
2018-04-06T08:53:02.443Z,5.18
2018-04-06T08:55:29.862Z,5.25
2018-04-06T08:57:57.279Z,8.52
2018-04-06T09:00:24.748Z,4.25
2018-04-06T09:02:52.167Z,5.87
2018-04-06T09:05:19.579Z,7.12
2018-04-06T09:07:47.060Z,4.15
2018-04-06T09:10:14.534Z,7.57
2018-04-06T09:12:41.953Z,4.90
2018-04-06T09:15:09.373Z,5.00
2018-04-06T09:17:36.836Z,3.83
2018-04-06T09:20:04.261Z,5.32
2018-04-06T09:22:31.685Z,5.68
2018-04-06T09:24:59.104Z,3.72
2018-04-06T09:27:26.616Z,5.45
2018-04-06T09:29:54.035Z,4.50
2018-04-06T09:32:21.464Z,6.03
2018-04-06T09:34:48.924Z,3.47
2018-04-06T09:37:16.352Z,5.25
2018-04-06T09:39:43.860Z,5.47
2018-04-06T09:42:12.030Z,4.30
2018-04-06T09:44:40.212Z,6.00
2018-04-06T09:47:08.424Z,6.15
2018-04-06T09:49:35.905Z,3.97
2018-04-06T09:52:03.279Z,4.95
2018-04-06T09:54:30.700Z,5.68
2018-04-06T09:56:58.918Z,5.22
2018-04-06T09:59:26.388Z,4.68
2018-04-06T10:01:55.796Z,4.57
2018-04-06T10:04:23.223Z,7.82
2018-04-06T10:06:50.736Z,3.17
2018-04-06T10:09:18.160Z,4.95
2018-04-06T10:11:45.677Z,3.25
2018-04-06T10:14:13.147Z,6.18
2018-04-06T10:16:40.563Z,7.18
2018-04-06T10:19:07.992Z,4.85
2018-04-06T10:21:35.452Z,3.92
2018-04-06T10:24:02.876Z,3.30
2018-04-06T10:26:30.396Z,4.30
2018-04-06T10:28:57.824Z,4.53
2018-04-06T10:31:25.240Z,3.28
2018-04-06T10:33:52.671Z,3.40
2018-04-06T10:36:20.890Z,2.05
2018-04-06T10:38:49.296Z,3.17
2018-04-06T10:41:16.700Z,2.03
2018-04-06T10:43:44.228Z,5.00
2018-04-06T10:46:11.694Z,3.70
2018-04-06T10:48:39.116Z,1.80
2018-04-06T10:51:06.628Z,1.80
2018-04-06T10:53:34.051Z,2.55
2018-04-06T10:56:01.478Z,4.28
2018-04-06T10:58:28.947Z,1.62
2018-04-06T11:00:56.368Z,5.22
2018-04-06T11:03:23.784Z,3.53
2018-04-06T11:05:51.215Z,4.62
2018-04-06T11:08:19.435Z,6.70
2018-04-06T11:10:46.907Z,2.22
2018-04-06T11:13:14.378Z,1.73
2018-04-06T11:15:41.804Z,6.10
2018-04-06T11:18:10.006Z,3.28
2018-04-06T11:20:38.188Z,5.37
2018-04-06T11:23:06.417Z,2.53
2018-04-06T11:25:34.563Z,6.72
2018-04-06T11:28:02.780Z,1.83
2018-04-06T11:30:30.192Z,6.82
2018-04-06T11:32:57.711Z,4.43
2018-04-06T11:35:25.184Z,4.53
2018-04-06T11:37:52.613Z,4.97
2018-04-06T11:40:20.123Z,3.70
2018-04-06T11:42:47.557Z,2.97
2018-04-06T11:45:15.072Z,3.50
2018-04-06T11:47:42.535Z,1.12
2018-04-06T11:50:09.959Z,3.87
2018-04-06T11:52:37.386Z,2.40
2018-04-06T11:55:04.808Z,2.30
2018-04-06T11:57:32.991Z,2.70
2018-04-06T12:00:00.424Z,2.60
2018-04-06T12:02:27.842Z,2.08
2018-04-06T12:04:56.031Z,0.90
2018-04-06T12:07:24.215Z,2.08
2018-04-06T12:09:52.412Z,2.80
2018-04-06T12:12:19.896Z,6.03
2018-04-06T12:14:47.360Z,5.37
2018-04-06T12:17:14.775Z,4.40
2018-04-06T12:19:42.200Z,2.65
2018-04-06T12:22:10.273Z,1.52
2018-04-06T12:24:37.811Z,3.72
2018-04-06T12:27:05.331Z,6.40
2018-04-06T12:29:32.768Z,2.80
2018-04-06T12:32:00.194Z,1.35
2018-04-06T12:34:27.649Z,4.65
2018-04-06T12:36:55.114Z,4.28
2018-04-06T12:39:22.536Z,1.23
2018-04-06T12:41:50.050Z,2.58
2018-04-06T12:44:17.530Z,6.57
2018-04-06T12:46:45.093Z,3.20
2018-04-06T12:49:12.572Z,5.47
2018-04-06T12:51:39.985Z,1.85
2018-04-06T12:54:07.713Z,2.70
2018-04-06T12:56:35.176Z,4.40
2018-04-06T12:59:02.606Z,2.08
2018-04-06T13:01:30.024Z,2.60
2018-04-06T13:03:57.448Z,0.80
2018-04-06T13:06:24.863Z,6.12
2018-04-06T13:08:52.288Z,3.92
2018-04-06T13:11:20.472Z,2.10
2018-04-06T13:13:48.667Z,3.10
2018-04-06T13:16:16.884Z,1.55
2018-04-06T13:18:45.211Z,2.67
2018-04-06T13:21:12.627Z,3.72
2018-04-06T13:23:40.056Z,1.40
2018-04-06T13:26:07.473Z,2.55
2018-04-06T13:28:34.908Z,2.97
2018-04-06T13:31:02.327Z,4.07
2018-04-06T13:33:29.745Z,3.35
2018-04-06T13:35:57.176Z,1.87
2018-04-06T13:38:24.596Z,1.15
2018-04-06T13:40:52.827Z,2.95
2018-04-06T13:43:20.239Z,1.50
2018-04-06T13:45:47.756Z,2.15
2018-04-06T13:48:15.224Z,3.10
2018-04-06T13:50:42.697Z,3.33
2018-04-06T13:53:10.176Z,1.48
2018-04-06T13:55:37.583Z,3.58
2018-04-06T13:58:04.999Z,3.95
2018-04-06T14:00:32.467Z,1.70
2018-04-06T14:02:59.903Z,2.05
2018-04-06T14:05:28.096Z,2.40
2018-04-06T14:07:56.280Z,4.07
2018-04-06T14:10:24.500Z,2.65
2018-04-06T14:12:52.174Z,3.10
2018-04-06T14:15:19.603Z,4.78
2018-04-06T14:17:47.115Z,4.82
2018-04-06T14:20:14.580Z,3.53
2018-04-06T14:22:42.055Z,4.00
2018-04-06T14:25:09.476Z,4.80
2018-04-06T14:27:36.900Z,3.08
2018-04-06T14:30:04.352Z,2.60
2018-04-06T14:32:31.767Z,4.28
2018-04-06T14:34:59.192Z,2.50
2018-04-06T14:37:26.617Z,1.98
2018-04-06T14:39:54.139Z,1.98
2018-04-06T14:42:21.551Z,2.17
2018-04-06T14:44:48.979Z,4.10
2018-04-06T14:47:16.500Z,2.97
2018-04-06T14:49:43.923Z,1.95
2018-04-06T14:52:11.340Z,2.87
2018-04-06T14:54:38.772Z,2.62
2018-04-06T14:57:06.221Z,2.62
2018-04-06T14:59:33.647Z,3.75
2018-04-06T15:02:01.068Z,7.62
2018-04-06T15:04:28.496Z,3.78
2018-04-06T15:06:56.730Z,4.20
2018-04-06T15:09:24.190Z,3.12
2018-04-06T15:11:51.621Z,2.67
2018-04-06T15:14:19.124Z,3.08
2018-04-06T15:16:46.548Z,4.55
2018-04-06T15:19:13.971Z,2.95
2018-04-06T15:21:41.403Z,3.65
2018-04-06T15:24:09.592Z,3.62
2018-04-06T15:26:37.811Z,2.87
2018-04-06T15:29:05.228Z,3.40
2018-04-06T15:31:32.749Z,2.65
2018-04-06T15:34:00.164Z,2.87
2018-04-06T15:36:27.595Z,3.60
2018-04-06T15:38:55.008Z,2.45
2018-04-06T15:41:22.484Z,5.03
2018-04-06T15:43:49.910Z,4.28
2018-04-06T15:46:17.341Z,5.60
2018-04-06T15:48:45.548Z,5.30
2018-04-06T15:51:13.024Z,3.72
2018-04-06T15:53:40.435Z,3.72
2018-04-06T15:56:07.876Z,5.95
2018-04-06T15:58:35.283Z,3.87
2018-04-06T16:01:02.703Z,3.22
2018-04-06T16:03:30.128Z,3.15
2018-04-06T16:05:58.351Z,3.03
2018-04-06T16:08:25.771Z,2.87
2018-04-06T16:10:53.288Z,3.28
2018-04-06T16:13:20.708Z,3.35
2018-04-06T16:15:48.236Z,4.80
2018-04-06T16:18:15.697Z,3.20
2018-04-06T16:20:43.116Z,5.35
2018-04-06T16:23:11.352Z,2.95
2018-04-06T16:25:38.775Z,4.85
2018-04-06T16:28:06.204Z,3.22
2018-04-06T16:30:33.638Z,3.78
2018-04-06T16:33:01.855Z,4.10
2018-04-06T16:35:29.316Z,4.75
2018-04-06T16:37:56.740Z,3.50
2018-04-06T16:40:24.159Z,3.62
2018-04-06T16:42:51.625Z,4.10
2018-04-06T16:45:19.044Z,2.75
2018-04-06T16:47:46.564Z,4.28
2018-04-06T16:50:13.997Z,3.72
2018-04-06T16:52:41.428Z,4.93
2018-04-06T16:55:08.847Z,5.22
2018-04-06T16:57:37.040Z,2.90
2018-04-06T17:00:05.244Z,2.80
2018-04-06T17:02:32.716Z,3.62
2018-04-06T17:05:00.193Z,3.25
2018-04-06T17:07:27.615Z,3.03
2018-04-06T17:09:55.127Z,5.30
2018-04-06T17:12:22.596Z,3.12
2018-04-06T17:14:50.016Z,4.60
2018-04-06T17:17:17.439Z,3.20
2018-04-06T17:19:44.929Z,4.25
2018-04-06T17:22:12.368Z,3.30
2018-04-06T17:24:39.784Z,3.70
2018-04-06T17:27:07.209Z,4.40
2018-04-06T17:29:34.630Z,3.30
2018-04-06T17:32:02.876Z,4.90
2018-04-06T17:34:30.287Z,3.87
2018-04-06T17:36:57.716Z,3.60
2018-04-06T17:39:25.133Z,3.00
2018-04-06T17:41:52.644Z,5.65
2018-04-06T17:44:20.072Z,3.17
2018-04-06T17:46:48.305Z,4.85
2018-04-06T17:49:15.772Z,2.05
2018-04-06T17:51:43.192Z,3.03
2018-04-06T17:54:12.123Z,4.97
2018-04-06T17:56:40.328Z,2.03
2018-04-06T17:59:07.751Z,4.32
2018-04-06T18:01:35.985Z,4.05
2018-04-06T18:04:03.364Z,5.85
2018-04-06T18:06:30.788Z,2.45
2018-04-06T18:08:58.976Z,2.45
2018-04-06T18:11:27.160Z,1.48
2018-04-06T18:13:54.668Z,3.45
2018-04-06T18:16:22.091Z,3.85
2018-04-06T18:18:49.521Z,2.58
2018-04-06T18:21:16.974Z,4.22
2018-04-06T18:23:44.448Z,3.22
2018-04-06T18:26:11.870Z,3.58
2018-04-06T18:28:39.312Z,1.48
2018-04-06T18:31:06.728Z,2.65
2018-04-06T18:33:34.916Z,2.15
2018-04-06T18:36:03.105Z,2.35
2018-04-06T18:38:31.298Z,2.37
2018-04-06T18:40:58.717Z,5.05
2018-04-06T18:43:26.252Z,2.80
2018-04-06T18:45:53.684Z,2.58
2018-04-06T18:48:22.612Z,2.45
2018-04-06T18:50:50.027Z,6.00
2018-04-06T18:53:17.565Z,3.30
2018-04-06T18:55:45.041Z,4.37
2018-04-06T18:58:12.464Z,4.45
2018-04-06T19:00:39.973Z,5.62
2018-04-06T19:03:07.404Z,7.45
2018-04-06T19:05:34.825Z,4.45
2018-04-06T19:08:02.256Z,3.15
2018-04-06T19:10:30.472Z,3.00
2018-04-06T19:12:57.892Z,2.25
2018-04-06T19:15:26.824Z,4.37
2018-04-06T19:17:55.047Z,6.05
2018-04-06T19:20:22.459Z,2.78
2018-04-06T19:22:49.872Z,5.60
2018-04-06T19:25:17.341Z,1.95
2018-04-06T19:27:44.760Z,6.70
2018-04-06T19:30:12.943Z,4.12
2018-04-06T19:32:40.468Z,3.72
2018-04-06T19:35:07.884Z,2.03
2018-04-06T19:37:35.311Z,6.90
2018-04-06T19:40:02.776Z,2.33
2018-04-06T19:42:30.200Z,3.28
2018-04-06T19:44:58.383Z,2.72
2018-04-06T19:47:25.913Z,4.95
2018-04-06T19:49:53.320Z,3.35
2018-04-06T19:52:20.845Z,2.75
2018-04-06T19:54:48.255Z,4.32
2018-04-06T19:57:15.676Z,4.45
2018-04-06T19:59:43.096Z,6.07
2018-04-06T20:02:10.615Z,4.93
2018-04-06T20:04:38.040Z,3.87
2018-04-06T20:07:06.964Z,4.68
2018-04-06T20:09:35.164Z,7.62
2018-04-06T20:12:02.584Z,4.43
2018-04-06T20:14:30.108Z,4.35
2018-04-06T20:16:57.524Z,2.47
2018-04-06T20:19:24.948Z,4.20
2018-04-06T20:21:52.371Z,3.00
2018-04-06T20:24:19.799Z,4.75
2018-04-06T20:26:47.212Z,4.22
2018-04-06T20:29:14.729Z,3.42
2018-04-06T20:31:42.152Z,1.73
2018-04-06T20:34:09.581Z,3.35
2018-04-06T20:36:37.000Z,2.75
2018-04-06T20:39:04.508Z,2.47
2018-04-06T20:41:31.928Z,3.75
2018-04-06T20:43:59.359Z,2.62
2018-04-06T20:46:26.825Z,4.80
2018-04-06T20:48:54.248Z,4.28
2018-04-06T20:51:22.469Z,6.85
2018-04-06T20:53:49.941Z,3.20
2018-04-06T20:56:17.359Z,2.30
2018-04-06T20:58:44.780Z,3.17
2018-04-06T21:01:12.245Z,4.60
2018-04-06T21:03:39.718Z,3.40
2018-04-06T21:06:07.107Z,6.20
2018-04-06T21:08:34.516Z,4.82
2018-04-06T21:11:02.740Z,3.12
2018-04-06T21:13:30.215Z,3.37
2018-04-06T21:15:57.640Z,4.43
2018-04-06T21:18:25.828Z,2.78
2018-04-06T21:20:53.439Z,4.65
2018-04-06T21:23:20.866Z,5.80
2018-04-06T21:25:48.354Z,3.67
2018-04-06T21:28:15.711Z,3.00
2018-04-06T21:30:43.910Z,2.53
2018-04-06T21:33:12.084Z,3.87
2018-04-06T21:35:40.286Z,3.92
2018-04-06T21:38:08.477Z,4.47
2018-04-06T21:40:36.683Z,2.12
2018-04-06T21:43:04.148Z,1.50
2018-04-06T21:45:31.572Z,2.50
2018-04-06T21:47:58.995Z,3.92
2018-04-06T21:50:26.420Z,2.35
2018-04-06T21:52:53.840Z,1.95
2018-04-06T21:55:21.279Z,3.05
2018-04-06T21:57:48.701Z,2.15
2018-04-06T22:00:16.236Z,2.15
2018-04-06T22:02:43.651Z,3.03
2018-04-06T22:05:11.068Z,2.03
2018-04-06T22:07:38.496Z,4.20
2018-04-06T22:10:05.911Z,2.22
2018-04-06T22:12:33.376Z,2.00
2018-04-06T22:15:00.791Z,3.67
2018-04-06T22:17:28.226Z,6.80
2018-04-06T22:19:55.684Z,2.58
2018-04-06T22:22:23.156Z,6.68
2018-04-06T22:24:50.624Z,6.30
2018-04-06T22:27:18.051Z,5.15
2018-04-06T22:29:45.471Z,5.10
2018-04-06T22:32:12.887Z,5.37
2018-04-06T22:34:40.411Z,6.62
2018-04-06T22:37:07.872Z,4.72
2018-04-06T22:39:35.283Z,8.18
2018-04-06T22:42:02.828Z,5.70
2018-04-06T22:44:30.246Z,4.78
2018-04-06T22:46:58.468Z,6.00
2018-04-06T22:49:25.888Z,4.80
2018-04-06T22:51:53.512Z,5.95
2018-04-06T22:54:20.983Z,6.57
2018-04-06T22:56:48.455Z,4.25
2018-04-06T22:59:15.880Z,5.03
2018-04-06T23:01:43.291Z,4.43
2018-04-06T23:04:10.716Z,3.25
2018-04-06T23:06:38.228Z,3.55
2018-04-06T23:09:05.699Z,2.60
2018-04-06T23:11:33.111Z,4.32
2018-04-06T23:14:00.532Z,3.03
2018-04-06T23:16:28.008Z,2.33
2018-04-06T23:18:55.475Z,2.85
2018-04-06T23:21:22.892Z,3.08
2018-04-06T23:23:51.828Z,3.65
2018-04-06T23:26:20.043Z,2.12
2018-04-06T23:28:48.363Z,2.62
2018-04-06T23:31:15.779Z,3.47
2018-04-06T23:33:43.264Z,3.70
2018-04-06T23:36:10.736Z,2.83
2018-04-06T23:38:38.152Z,3.08
2018-04-06T23:41:05.672Z,6.40
2018-04-06T23:43:33.093Z,4.28
2018-04-06T23:46:00.513Z,3.62
2018-04-06T23:48:27.931Z,3.08
2018-04-06T23:50:55.452Z,2.08
2018-04-06T23:53:22.875Z,4.05
2018-04-06T23:55:50.296Z,5.68
2018-04-06T23:58:17.758Z,3.30
